X  Sluiten METAR luchtvaart weer gegevens      EHRD Rotterdam The Hague Airport
Temperatuur
21°C Temperatuur
11°C Dauwpunt
53% Vochtigheid



Wind
19 KM/U
12 MPH
5 M/S
10 KTS



150°
ZZO
Huidig weer

Grotendeels bewolkt Grotendeels bewolkt
Luchtdruk 1014.92 (hPa) - 29.97 (inHg)
Zicht 6.2 (mijl) - 10 (km)
Vliegveld
Vliegveld code EHRD

Locatie : Rotterdam The Hague Airport
Afstand: 16 (km)

Metar:
EHRD 261325Z AUTO 15010KT 110V200 9999 BKN036 BKN040 21/11 Q1015 NOSIG

Tijd: 26-06-2022 15:25 CEST